sensor_id;sensor_type;location;lat;lon;timestamp;pressure;altitude;pressure_sealevel;temperature;humidity
12172;BME280;6149;52.418;13.668;2024-03-08T00:01:23;102000.16;;;-1.95;100.00
12172;BME280;6149;52.418;13.668;2024-03-08T00:03:50;101995.75;;;-1.99;100.00
12172;BME280;6149;52.418;13.668;2024-03-08T00:06:17;101992.31;;;-1.99;100.00
12172;BME280;6149;52.418;13.668;2024-03-08T00:08:43;101985.34;;;-2.02;100.00
12172;BME280;6149;52.418;13.668;2024-03-08T00:11:11;101985.31;;;-2.04;100.00
12172;BME280;6149;52.418;13.668;2024-03-08T00:13:38;101987.88;;;-2.05;100.00
12172;BME280;6149;52.418;13.668;2024-03-08T00:16:05;101982.66;;;-2.07;100.00
12172;BME280;6149;52.418;13.668;2024-03-08T00:18:33;101986.03;;;-2.09;100.00
12172;BME280;6149;52.418;13.668;2024-03-08T00:20:59;101990.31;;;-2.11;100.00
12172;BME280;6149;52.418;13.668;2024-03-08T00:23:26;101991.13;;;-2.14;100.00
12172;BME280;6149;52.418;13.668;2024-03-08T00:25:53;101984.16;;;-2.16;100.00
12172;BME280;6149;52.418;13.668;2024-03-08T00:28:21;101983.25;;;-2.18;100.00
12172;BME280;6149;52.418;13.668;2024-03-08T00:30:50;101984.03;;;-2.22;100.00
12172;BME280;6149;52.418;13.668;2024-03-08T00:33:16;101986.59;;;-2.25;100.00
12172;BME280;6149;52.418;13.668;2024-03-08T00:35:43;101983.09;;;-2.27;100.00
12172;BME280;6149;52.418;13.668;2024-03-08T00:38:09;101995.13;;;-2.29;100.00
12172;BME280;6149;52.418;13.668;2024-03-08T00:40:36;101985.56;;;-2.32;100.00
12172;BME280;6149;52.418;13.668;2024-03-08T00:43:03;101989.00;;;-2.33;100.00
12172;BME280;6149;52.418;13.668;2024-03-08T00:45:31;101975.97;;;-2.36;100.00
12172;BME280;6149;52.418;13.668;2024-03-08T00:47:57;101981.97;;;-2.39;100.00
12172;BME280;6149;52.418;13.668;2024-03-08T00:50:24;101978.47;;;-2.41;100.00
12172;BME280;6149;52.418;13.668;2024-03-08T00:52:51;101983.66;;;-2.41;100.00
12172;BME280;6149;52.418;13.668;2024-03-08T00:55:17;101987.88;;;-2.44;100.00
12172;BME280;6149;52.418;13.668;2024-03-08T00:57:44;101980.09;;;-2.46;100.00
12172;BME280;6149;52.418;13.668;2024-03-08T01:00:11;101976.56;;;-2.49;100.00
12172;BME280;6149;52.418;13.668;2024-03-08T01:02:40;101968.75;;;-2.51;100.00
12172;BME280;6149;52.418;13.668;2024-03-08T01:05:08;101960.94;;;-2.52;100.00
12172;BME280;6149;52.418;13.668;2024-03-08T01:07:34;101969.59;;;-2.52;100.00
12172;BME280;6149;52.418;13.668;2024-03-08T01:10:01;101960.06;;;-2.53;100.00
12172;BME280;6149;52.418;13.668;2024-03-08T01:12:28;101958.31;;;-2.54;100.00
12172;BME280;6149;52.418;13.668;2024-03-08T01:14:55;101959.19;;;-2.53;100.00
12172;BME280;6149;52.418;13.668;2024-03-08T01:17:23;101956.59;;;-2.53;100.00
12172;BME280;6149;52.418;13.668;2024-03-08T01:19:51;101952.22;;;-2.56;100.00
12172;BME280;6149;52.418;13.668;2024-03-08T01:22:18;101948.78;;;-2.56;100.00
12172;BME280;6149;52.418;13.668;2024-03-08T01:24:45;101941.81;;;-2.60;100.00
12172;BME280;6149;52.418;13.668;2024-03-08T01:27:11;101941.72;;;-2.63;100.00
12172;BME280;6149;52.418;13.668;2024-03-08T01:29:38;101939.03;;;-2.68;100.00
12172;BME280;6149;52.418;13.668;2024-03-08T01:32:05;101934.69;;;-2.69;100.00
12172;BME280;6149;52.418;13.668;2024-03-08T01:34:31;101935.50;;;-2.72;100.00
12172;BME280;6149;52.418;13.668;2024-03-08T01:37:00;101919.94;;;-2.73;100.00
12172;BME280;6149;52.418;13.668;2024-03-08T01:39:26;101931.13;;;-2.74;100.00
12172;BME280;6149;52.418;13.668;2024-03-08T01:41:53;101925.91;;;-2.76;100.00
12172;BME280;6149;52.418;13.668;2024-03-08T01:44:20;101920.69;;;-2.79;100.00
12172;BME280;6149;52.418;13.668;2024-03-08T01:46:47;101924.94;;;-2.81;100.00
12172;BME280;6149;52.418;13.668;2024-03-08T01:49:17;101924.00;;;-2.84;100.00
12172;BME280;6149;52.418;13.668;2024-03-08T01:51:47;101904.13;;;-2.85;100.00
12172;BME280;6149;52.418;13.668;2024-03-08T01:54:16;101919.63;;;-2.87;100.00
12172;BME280;6149;52.418;13.668;2024-03-08T01:56:45;101919.63;;;-2.87;100.00
12172;BME280;6149;52.418;13.668;2024-03-08T01:59:12;101918.72;;;-2.89;100.00
12172;BME280;6149;52.418;13.668;2024-03-08T02:01:40;101910.06;;;-2.89;100.00
12172;BME280;6149;52.418;13.668;2024-03-08T02:04:07;101906.56;;;-2.91;100.00
12172;BME280;6149;52.418;13.668;2024-03-08T02:06:34;101899.63;;;-2.94;100.00
12172;BME280;6149;52.418;13.668;2024-03-08T02:09:03;101903.88;;;-2.96;100.00
12172;BME280;6149;52.418;13.668;2024-03-08T02:11:32;101901.28;;;-2.97;100.00
12172;BME280;6149;52.418;13.668;2024-03-08T02:13:59;101898.66;;;-2.99;100.00
12172;BME280;6149;52.418;13.668;2024-03-08T02:16:26;101895.22;;;-2.99;100.00
12172;BME280;6149;52.418;13.668;2024-03-08T02:18:53;101890.00;;;-3.01;100.00
12172;BME280;6149;52.418;13.668;2024-03-08T02:21:21;101900.31;;;-3.03;100.00
12172;BME280;6149;52.418;13.668;2024-03-08T02:23:47;101891.66;;;-3.03;100.00
12172;BME280;6149;52.418;13.668;2024-03-08T02:26:17;101887.25;;;-3.07;100.00
12172;BME280;6149;52.418;13.668;2024-03-08T02:28:44;101890.69;;;-3.08;100.00
12172;BME280;6149;52.418;13.668;2024-03-08T02:31:11;101894.13;;;-3.09;100.00
12172;BME280;6149;52.418;13.668;2024-03-08T02:33:37;101883.69;;;-3.12;100.00
12172;BME280;6149;52.418;13.668;2024-03-08T02:36:05;101887.13;;;-3.13;100.00
12172;BME280;6149;52.418;13.668;2024-03-08T02:38:33;101888.75;;;-3.17;100.00
12172;BME280;6149;52.418;13.668;2024-03-08T02:41:00;101880.09;;;-3.19;100.00
12172;BME280;6149;52.418;13.668;2024-03-08T02:43:29;101880.88;;;-3.21;100.00
12172;BME280;6149;52.418;13.668;2024-03-08T02:45:55;101877.44;;;-3.22;100.00
12172;BME280;6149;52.418;13.668;2024-03-08T02:48:22;101879.97;;;-3.23;100.00
12172;BME280;6149;52.418;13.668;2024-03-08T02:50:49;101871.38;;;-3.22;100.00
12172;BME280;6149;52.418;13.668;2024-03-08T02:53:16;101879.06;;;-3.25;100.00
12172;BME280;6149;52.418;13.668;2024-03-08T02:55:45;101873.81;;;-3.28;100.00
12172;BME280;6149;52.418;13.668;2024-03-08T02:58:12;101866.03;;;-3.30;100.00
12172;BME280;6149;52.418;13.668;2024-03-08T03:00:39;101865.09;;;-3.32;100.00
12172;BME280;6149;52.418;13.668;2024-03-08T03:03:06;101864.19;;;-3.34;100.00
12172;BME280;6149;52.418;13.668;2024-03-08T03:05:33;101862.47;;;-3.35;100.00
12172;BME280;6149;52.418;13.668;2024-03-08T03:07:59;101864.16;;;-3.37;100.00
12172;BME280;6149;52.418;13.668;2024-03-08T03:10:26;101857.16;;;-3.41;100.00
12172;BME280;6149;52.418;13.668;2024-03-08T03:12:54;101866.63;;;-3.42;100.00
12172;BME280;6149;52.418;13.668;2024-03-08T03:15:20;101871.75;;;-3.43;100.00
12172;BME280;6149;52.418;13.668;2024-03-08T03:17:48;101865.69;;;-3.45;100.00
12172;BME280;6149;52.418;13.668;2024-03-08T03:20:16;101863.84;;;-3.49;100.00
12172;BME280;6149;52.418;13.668;2024-03-08T03:22:51;101865.56;;;-3.50;100.00
12172;BME280;6149;52.418;13.668;2024-03-08T03:25:18;101868.97;;;-3.51;100.00
12172;BME280;6149;52.418;13.668;2024-03-08T03:27:50;101868.06;;;-3.53;100.00
12172;BME280;6149;52.418;13.668;2024-03-08T03:30:22;101861.13;;;-3.55;100.00
12172;BME280;6149;52.418;13.668;2024-03-08T03:32:52;101861.13;;;-3.55;100.00
12172;BME280;6149;52.418;13.668;2024-03-08T03:35:20;101855.94;;;-3.55;100.00
12172;BME280;6149;52.418;13.668;2024-03-08T03:37:47;101859.31;;;-3.58;100.00
12172;BME280;6149;52.418;13.668;2024-03-08T03:40:26;101855.88;;;-3.58;100.00
12172;BME280;6149;52.418;13.668;2024-03-08T03:42:53;101860.13;;;-3.60;100.00
12172;BME280;6149;52.418;13.668;2024-03-08T03:45:20;101848.06;;;-3.60;100.00
12172;BME280;6149;52.418;13.668;2024-03-08T03:47:48;101852.38;;;-3.60;100.00
12172;BME280;6149;52.418;13.668;2024-03-08T03:50:14;101860.97;;;-3.61;100.00
12172;BME280;6149;52.418;13.668;2024-03-08T03:52:41;101854.88;;;-3.63;100.00
12172;BME280;6149;52.418;13.668;2024-03-08T03:55:08;101861.75;;;-3.64;100.00
12172;BME280;6149;52.418;13.668;2024-03-08T03:57:35;101848.78;;;-3.65;100.00
12172;BME280;6149;52.418;13.668;2024-03-08T04:00:02;101847.88;;;-3.67;100.00
12172;BME280;6149;52.418;13.668;2024-03-08T04:02:31;101853.88;;;-3.68;100.00
12172;BME280;6149;52.418;13.668;2024-03-08T04:04:59;101864.19;;;-3.70;100.00
12172;BME280;6149;52.418;13.668;2024-03-08T04:07:25;101862.44;;;-3.71;100.00
12172;BME280;6149;52.418;13.668;2024-03-08T04:09:52;101852.00;;;-3.76;100.00
12172;BME280;6149;52.418;13.668;2024-03-08T04:12:19;101861.44;;;-3.78;100.00
12172;BME280;6149;52.418;13.668;2024-03-08T04:14:46;101858.75;;;-3.81;100.00
12172;BME280;6149;52.418;13.668;2024-03-08T04:17:12;101854.38;;;-3.83;100.00
12172;BME280;6149;52.418;13.668;2024-03-08T04:19:39;101860.41;;;-3.84;100.00
12172;BME280;6149;52.418;13.668;2024-03-08T04:22:07;101853.47;;;-3.85;100.00
12172;BME280;6149;52.418;13.668;2024-03-08T04:24:33;101857.78;;;-3.86;100.00
12172;BME280;6149;52.418;13.668;2024-03-08T04:27:00;101856.91;;;-3.86;100.00
12172;BME280;6149;52.418;13.668;2024-03-08T04:29:27;101858.59;;;-3.87;100.00
12172;BME280;6149;52.418;13.668;2024-03-08T04:31:53;101859.44;;;-3.88;100.00
12172;BME280;6149;52.418;13.668;2024-03-08T04:34:20;101850.78;;;-3.90;100.00
12172;BME280;6149;52.418;13.668;2024-03-08T04:36:47;101852.47;;;-3.90;100.00
12172;BME280;6149;52.418;13.668;2024-03-08T04:39:15;101845.53;;;-3.93;100.00
12172;BME280;6149;52.418;13.668;2024-03-08T04:41:44;101850.66;;;-3.94;100.00
12172;BME280;6149;52.418;13.668;2024-03-08T04:44:11;101848.03;;;-3.96;100.00
12172;BME280;6149;52.418;13.668;2024-03-08T04:46:38;101843.66;;;-3.98;100.00
12172;BME280;6149;52.418;13.668;2024-03-08T04:49:05;101843.69;;;-3.97;100.00
12172;BME280;6149;52.418;13.668;2024-03-08T04:51:32;101840.25;;;-3.97;100.00
12172;BME280;6149;52.418;13.668;2024-03-08T04:53:58;101841.94;;;-3.98;100.00
12172;BME280;6149;52.418;13.668;2024-03-08T04:56:26;101850.53;;;-3.99;100.00
12172;BME280;6149;52.418;13.668;2024-03-08T04:58:53;101849.63;;;-4.01;100.00
12172;BME280;6149;52.418;13.668;2024-03-08T05:01:19;101844.41;;;-4.03;100.00
12172;BME280;6149;52.418;13.668;2024-03-08T05:03:47;101845.25;;;-4.04;100.00
12172;BME280;6149;52.418;13.668;2024-03-08T05:06:15;101848.63;;;-4.06;100.00
12172;BME280;6149;52.418;13.668;2024-03-08T05:08:41;101842.56;;;-4.07;100.00
12172;BME280;6149;52.418;13.668;2024-03-08T05:11:08;101838.22;;;-4.09;100.00
12172;BME280;6149;52.418;13.668;2024-03-08T05:13:36;101842.53;;;-4.10;100.00
12172;BME280;6149;52.418;13.668;2024-03-08T05:16:03;101839.06;;;-4.10;100.00
12172;BME280;6149;52.418;13.668;2024-03-08T05:18:32;101834.75;;;-4.11;100.00
12172;BME280;6149;52.418;13.668;2024-03-08T05:20:59;101835.56;;;-4.12;100.00
12172;BME280;6149;52.418;13.668;2024-03-08T05:23:29;101830.38;;;-4.14;100.00
12172;BME280;6149;52.418;13.668;2024-03-08T05:25:55;101836.34;;;-4.15;100.00
12172;BME280;6149;52.418;13.668;2024-03-08T05:28:22;101838.06;;;-4.15;100.00
12172;BME280;6149;52.418;13.668;2024-03-08T05:30:50;101827.75;;;-4.15;100.00
12172;BME280;6149;52.418;13.668;2024-03-08T05:33:16;101835.50;;;-4.15;100.00
12172;BME280;6149;52.418;13.668;2024-03-08T05:35:44;101838.03;;;-4.17;100.00
12172;BME280;6149;52.418;13.668;2024-03-08T05:38:11;101825.13;;;-4.17;100.00
12172;BME280;6149;52.418;13.668;2024-03-08T05:40:38;101825.06;;;-4.18;100.00
12172;BME280;6149;52.418;13.668;2024-03-08T05:43:04;101826.75;;;-4.20;100.00
12172;BME280;6149;52.418;13.668;2024-03-08T05:45:31;101819.81;;;-4.21;100.00
12172;BME280;6149;52.418;13.668;2024-03-08T05:48:00;101825.88;;;-4.21;100.00
12172;BME280;6149;52.418;13.668;2024-03-08T05:50:27;101819.81;;;-4.21;100.00
12172;BME280;6149;52.418;13.668;2024-03-08T05:52:54;101820.66;;;-4.22;100.00
12172;BME280;6149;52.418;13.668;2024-03-08T05:55:20;101815.50;;;-4.22;100.00
12172;BME280;6149;52.418;13.668;2024-03-08T05:57:49;101818.94;;;-4.22;100.00
12172;BME280;6149;52.418;13.668;2024-03-08T06:00:16;101826.75;;;-4.20;100.00
12172;BME280;6149;52.418;13.668;2024-03-08T06:02:44;101819.03;;;-4.19;100.00
12172;BME280;6149;52.418;13.668;2024-03-08T06:05:12;101828.53;;;-4.18;100.00
12172;BME280;6149;52.418;13.668;2024-03-08T06:07:39;101824.28;;;-4.16;100.00
12172;BME280;6149;52.418;13.668;2024-03-08T06:10:08;101834.69;;;-4.13;100.00
12172;BME280;6149;52.418;13.668;2024-03-08T06:12:37;101835.59;;;-4.11;100.00
12172;BME280;6149;52.418;13.668;2024-03-08T06:15:06;101837.41;;;-4.07;100.00
12172;BME280;6149;52.418;13.668;2024-03-08T06:17:35;101833.16;;;-4.05;100.00
12172;BME280;6149;52.418;13.668;2024-03-08T06:20:02;101835.78;;;-4.03;100.00
12172;BME280;6149;52.418;13.668;2024-03-08T06:22:30;101838.44;;;-4.00;100.00
12172;BME280;6149;52.418;13.668;2024-03-08T06:24:57;101838.66;;;-3.92;100.00
12172;BME280;6149;52.418;13.668;2024-03-08T06:27:23;101837.25;;;-3.80;100.00
12172;BME280;6149;52.418;13.668;2024-03-08T06:29:50;101840.25;;;-3.63;100.00
12172;BME280;6149;52.418;13.668;2024-03-08T06:32:16;101840.66;;;-3.46;100.00
12172;BME280;6149;52.418;13.668;2024-03-08T06:34:44;101838.34;;;-3.35;100.00
12172;BME280;6149;52.418;13.668;2024-03-08T06:37:10;101837.63;;;-3.28;100.00
12172;BME280;6149;52.418;13.668;2024-03-08T06:39:38;101841.19;;;-3.23;100.00
12172;BME280;6149;52.418;13.668;2024-03-08T06:42:05;101837.78;;;-3.21;100.00
12172;BME280;6149;52.418;13.668;2024-03-08T06:44:32;101830.94;;;-3.19;100.00
12172;BME280;6149;52.418;13.668;2024-03-08T06:46:59;101837.97;;;-3.13;100.00
12172;BME280;6149;52.418;13.668;2024-03-08T06:49:26;101839.03;;;-3.05;100.00
12172;BME280;6149;52.418;13.668;2024-03-08T06:51:53;101836.63;;;-2.96;100.00
12172;BME280;6149;52.418;13.668;2024-03-08T06:54:19;101841.16;;;-2.86;100.00
12172;BME280;6149;52.418;13.668;2024-03-08T06:56:47;101834.47;;;-2.76;100.00
12172;BME280;6149;52.418;13.668;2024-03-08T06:59:14;101832.88;;;-2.70;100.00
12172;BME280;6149;52.418;13.668;2024-03-08T07:01:43;101828.69;;;-2.64;100.00
12172;BME280;6149;52.418;13.668;2024-03-08T07:04:09;101837.44;;;-2.56;100.00
12172;BME280;6149;52.418;13.668;2024-03-08T07:06:37;101821.31;;;-2.43;100.00
12172;BME280;6149;52.418;13.668;2024-03-08T07:09:03;101828.34;;;-2.38;100.00
12172;BME280;6149;52.418;13.668;2024-03-08T07:11:30;101821.63;;;-2.28;100.00
12172;BME280;6149;52.418;13.668;2024-03-08T07:13:58;101826.88;;;-2.22;100.00
12172;BME280;6149;52.418;13.668;2024-03-08T07:16:28;101826.19;;;-2.13;100.00
12172;BME280;6149;52.418;13.668;2024-03-08T07:18:54;101830.75;;;-2.00;100.00
12172;BME280;6149;52.418;13.668;2024-03-08T07:21:24;101824.88;;;-1.91;100.00
12172;BME280;6149;52.418;13.668;2024-03-08T07:23:51;101825.06;;;-1.79;100.00
12172;BME280;6149;52.418;13.668;2024-03-08T07:26:38;101821.16;;;-1.56;100.00
12172;BME280;6149;52.418;13.668;2024-03-08T07:29:06;101821.44;;;-1.36;100.00
12172;BME280;6149;52.418;13.668;2024-03-08T07:31:33;101817.25;;;-1.28;100.00
12172;BME280;6149;52.418;13.668;2024-03-08T07:34:10;101810.63;;;-1.06;100.00
12172;BME280;6149;52.418;13.668;2024-03-08T07:36:37;101810.63;;;-1.05;100.00
12172;BME280;6149;52.418;13.668;2024-03-08T07:39:04;101814.22;;;-0.96;100.00
12172;BME280;6149;52.418;13.668;2024-03-08T07:41:36;101808.47;;;-0.71;100.00
12172;BME280;6149;52.418;13.668;2024-03-08T07:44:06;101805.97;;;-0.65;100.00
12172;BME280;6149;52.418;13.668;2024-03-08T07:46:34;101802.00;;;-0.32;100.00
12172;BME280;6149;52.418;13.668;2024-03-08T07:49:01;101796.09;;;-0.16;100.00
12172;BME280;6149;52.418;13.668;2024-03-08T07:51:28;101798.00;;;0.00;100.00
12172;BME280;6149;52.418;13.668;2024-03-08T07:53:55;101803.56;;;0.44;100.00
12172;BME280;6149;52.418;13.668;2024-03-08T07:56:24;101801.91;;;0.57;100.00
12172;BME280;6149;52.418;13.668;2024-03-08T07:58:50;101811.72;;;0.97;100.00
12172;BME280;6149;52.418;13.668;2024-03-08T08:01:20;101803.09;;;1.08;100.00
12172;BME280;6149;52.418;13.668;2024-03-08T08:03:46;101810.16;;;1.36;100.00
12172;BME280;6149;52.418;13.668;2024-03-08T08:06:14;101809.34;;;1.43;100.00
12172;BME280;6149;52.418;13.668;2024-03-08T08:08:41;101805.94;;;1.68;100.00
12172;BME280;6149;52.418;13.668;2024-03-08T08:11:08;101808.53;;;1.72;100.00
12172;BME280;6149;52.418;13.668;2024-03-08T08:13:36;101802.50;;;1.97;100.00
12172;BME280;6149;52.418;13.668;2024-03-08T08:16:04;101806.00;;;2.08;100.00
12172;BME280;6149;52.418;13.668;2024-03-08T08:18:33;101801.63;;;2.25;100.00
12172;BME280;6149;52.418;13.668;2024-03-08T08:21:00;101799.03;;;2.36;100.00
12172;BME280;6149;52.418;13.668;2024-03-08T08:23:27;101802.47;;;2.70;100.00
12172;BME280;6149;52.418;13.668;2024-03-08T08:25:54;101788.47;;;2.98;100.00
12172;BME280;6149;52.418;13.668;2024-03-08T08:28:21;101804.13;;;3.11;100.00
12172;BME280;6149;52.418;13.668;2024-03-08T08:30:47;101788.44;;;3.11;100.00
12172;BME280;6149;52.418;13.668;2024-03-08T08:33:14;101791.88;;;3.32;100.00
12172;BME280;6149;52.418;13.668;2024-03-08T08:35:42;101791.66;;;3.71;100.00
12172;BME280;6149;52.418;13.668;2024-03-08T08:38:09;101785.56;;;3.68;100.00
12172;BME280;6149;52.418;13.668;2024-03-08T08:40:36;101788.13;;;3.75;100.00
12172;BME280;6149;52.418;13.668;2024-03-08T08:43:03;101786.28;;;3.93;100.00
12172;BME280;6149;52.418;13.668;2024-03-08T08:45:30;101782.72;;;4.02;100.00
12172;BME280;6149;52.418;13.668;2024-03-08T08:47:58;101781.59;;;4.36;100.00
12172;BME280;6149;52.418;13.668;2024-03-08T08:50:25;101778.81;;;4.50;100.00
12172;BME280;6149;52.418;13.668;2024-03-08T08:52:55;101774.38;;;4.60;100.00
12172;BME280;6149;52.418;13.668;2024-03-08T08:55:22;101769.81;;;4.79;100.00
12172;BME280;6149;52.418;13.668;2024-03-08T08:57:50;101773.19;;;4.90;100.00
12172;BME280;6149;52.418;13.668;2024-03-08T09:00:18;101764.38;;;4.95;100.00
12172;BME280;6149;52.418;13.668;2024-03-08T09:02:46;101764.03;;;5.23;100.00
12172;BME280;6149;52.418;13.668;2024-03-08T09:05:13;101765.69;;;5.31;100.00
12172;BME280;6149;52.418;13.668;2024-03-08T09:07:42;101760.34;;;5.41;100.00
12172;BME280;6149;52.418;13.668;2024-03-08T09:10:11;101754.94;;;5.51;100.00
12172;BME280;6149;52.418;13.668;2024-03-08T09:12:39;101759.91;;;5.71;100.00
12172;BME280;6149;52.418;13.668;2024-03-08T09:15:07;101757.03;;;5.91;100.00
12172;BME280;6149;52.418;13.668;2024-03-08T09:17:36;101754.13;;;6.06;100.00
12172;BME280;6149;52.418;13.668;2024-03-08T09:20:05;101747.81;;;6.19;100.00
12172;BME280;6149;52.418;13.668;2024-03-08T09:22:34;101753.81;;;6.26;100.00
12172;BME280;6149;52.418;13.668;2024-03-08T09:25:01;101740.63;;;6.30;100.00
12172;BME280;6149;52.418;13.668;2024-03-08T09:27:29;101744.63;;;6.50;100.00
12172;BME280;6149;52.418;13.668;2024-03-08T09:29:56;101726.63;;;6.75;100.00
12172;BME280;6149;52.418;13.668;2024-03-08T09:32:22;101729.63;;;7.01;99.18
12172;BME280;6149;52.418;13.668;2024-03-08T09:34:49;101721.56;;;7.09;95.38
12172;BME280;6149;52.418;13.668;2024-03-08T09:37:16;101723.28;;;7.11;94.36
12172;BME280;6149;52.418;13.668;2024-03-08T09:39:44;101718.69;;;7.21;93.59
12172;BME280;6149;52.418;13.668;2024-03-08T09:42:11;101716.78;;;7.29;93.27
12172;BME280;6149;52.418;13.668;2024-03-08T09:44:44;101715.41;;;7.50;94.81
12172;BME280;6149;52.418;13.668;2024-03-08T09:47:13;101707.97;;;7.68;88.34
12172;BME280;6149;52.418;13.668;2024-03-08T09:49:40;101715.03;;;7.66;86.32
12172;BME280;6149;52.418;13.668;2024-03-08T09:52:08;101714.41;;;7.92;85.81
12172;BME280;6149;52.418;13.668;2024-03-08T09:54:35;101712.56;;;7.96;82.75
12172;BME280;6149;52.418;13.668;2024-03-08T09:57:03;101707.91;;;8.07;83.37
12172;BME280;6149;52.418;13.668;2024-03-08T09:59:30;101708.63;;;8.14;80.35
12172;BME280;6149;52.418;13.668;2024-03-08T10:02:15;101707.22;;;8.34;81.01
12172;BME280;6149;52.418;13.668;2024-03-08T10:04:43;101694.31;;;8.56;76.60
12172;BME280;6149;52.418;13.668;2024-03-08T10:07:12;101693.94;;;8.70;75.06
12172;BME280;6149;52.418;13.668;2024-03-08T10:09:39;101698.28;;;8.73;75.44
12172;BME280;6149;52.418;13.668;2024-03-08T10:12:07;101689.09;;;8.87;74.27
12172;BME280;6149;52.418;13.668;2024-03-08T10:14:39;101687.66;;;9.05;72.58
12172;BME280;6149;52.418;13.668;2024-03-08T10:17:07;101687.16;;;8.92;70.54
12172;BME280;6149;52.418;13.668;2024-03-08T10:19:35;101683.16;;;8.79;69.60
12172;BME280;6149;52.418;13.668;2024-03-08T10:22:02;101681.25;;;8.84;69.63
12172;BME280;6149;52.418;13.668;2024-03-08T10:24:29;101678.44;;;8.59;68.71
12172;BME280;6149;52.418;13.668;2024-03-08T10:26:59;101665.72;;;8.74;68.88
12172;BME280;6149;52.418;13.668;2024-03-08T10:29:27;101674.50;;;8.74;66.62
12172;BME280;6149;52.418;13.668;2024-03-08T10:31:54;101672.19;;;8.62;67.05
12172;BME280;6149;52.418;13.668;2024-03-08T10:34:22;101673.69;;;8.72;67.88
12172;BME280;6149;52.418;13.668;2024-03-08T10:36:51;101674.41;;;8.77;66.34
12172;BME280;6149;52.418;13.668;2024-03-08T10:39:24;101654.50;;;8.96;66.66
12172;BME280;6149;52.418;13.668;2024-03-08T10:41:56;101661.81;;;8.88;66.97
12172;BME280;6149;52.418;13.668;2024-03-08T10:44:40;101651.56;;;9.07;64.93
12172;BME280;6149;52.418;13.668;2024-03-08T10:47:18;101659.84;;;9.24;64.22
12172;BME280;6149;52.418;13.668;2024-03-08T10:49:55;101658.59;;;9.07;62.17
12172;BME280;6149;52.418;13.668;2024-03-08T10:52:31;101644.94;;;8.92;64.69
12172;BME280;6149;52.418;13.668;2024-03-08T10:55:01;101646.88;;;8.87;64.44
12172;BME280;6149;52.418;13.668;2024-03-08T10:57:28;101642.81;;;8.76;63.47
12172;BME280;6149;52.418;13.668;2024-03-08T10:59:56;101629.38;;;8.85;64.94
12172;BME280;6149;52.418;13.668;2024-03-08T11:02:25;101639.53;;;8.97;64.77
12172;BME280;6149;52.418;13.668;2024-03-08T11:04:52;101632.31;;;9.03;63.15
12172;BME280;6149;52.418;13.668;2024-03-08T11:07:21;101623.66;;;8.98;60.94
12172;BME280;6149;52.418;13.668;2024-03-08T11:09:49;101621.44;;;9.14;62.27
12172;BME280;6149;52.418;13.668;2024-03-08T11:12:20;101609.44;;;9.04;60.43
12172;BME280;6149;52.418;13.668;2024-03-08T11:14:51;101611.53;;;8.93;59.35
12172;BME280;6149;52.418;13.668;2024-03-08T11:17:20;101617.31;;;9.05;60.65
12172;BME280;6149;52.418;13.668;2024-03-08T11:19:48;101609.78;;;9.21;58.70
12172;BME280;6149;52.418;13.668;2024-03-08T11:22:21;101602.16;;;9.12;58.87
12172;BME280;6149;52.418;13.668;2024-03-08T11:24:58;101595.91;;;9.15;59.11
12172;BME280;6149;52.418;13.668;2024-03-08T11:27:29;101594.19;;;9.14;59.04
12172;BME280;6149;52.418;13.668;2024-03-08T11:30:00;101588.63;;;9.23;56.80
12172;BME280;6149;52.418;13.668;2024-03-08T11:32:35;101581.81;;;9.16;54.91
12172;BME280;6149;52.418;13.668;2024-03-08T11:35:07;101581.47;;;9.26;54.99
12172;BME280;6149;52.418;13.668;2024-03-08T11:37:35;101589.50;;;9.23;56.63
12172;BME280;6149;52.418;13.668;2024-03-08T11:40:11;101583.41;;;9.21;56.22
12172;BME280;6149;52.418;13.668;2024-03-08T11:42:40;101584.91;;;9.28;56.53
12172;BME280;6149;52.418;13.668;2024-03-08T11:45:08;101580.38;;;9.32;53.83
12172;BME280;6149;52.418;13.668;2024-03-08T11:47:36;101578.25;;;9.17;54.82
12172;BME280;6149;52.418;13.668;2024-03-08T11:50:06;101576.06;;;9.29;54.64
12172;BME280;6149;52.418;13.668;2024-03-08T11:52:36;101576.25;;;9.25;52.61
12172;BME280;6149;52.418;13.668;2024-03-08T11:55:05;101574.63;;;9.47;53.37
12172;BME280;6149;52.418;13.668;2024-03-08T11:57:33;101573.66;;;9.23;52.92
12172;BME280;6149;52.418;13.668;2024-03-08T12:00:00;101567.63;;;9.20;53.21
12172;BME280;6149;52.418;13.668;2024-03-08T12:02:32;101561.38;;;9.22;53.06
12172;BME280;6149;52.418;13.668;2024-03-08T12:05:01;101558.75;;;9.22;57.41
12172;BME280;6149;52.418;13.668;2024-03-08T12:07:28;101560.75;;;9.41;58.74
12172;BME280;6149;52.418;13.668;2024-03-08T12:10:18;101560.75;;;9.41;58.65
12172;BME280;6149;52.418;13.668;2024-03-08T12:12:47;101552.19;;;9.34;59.96
12172;BME280;6149;52.418;13.668;2024-03-08T12:15:15;101552.19;;;9.34;57.29
12172;BME280;6149;52.418;13.668;2024-03-08T12:17:43;101546.03;;;9.33;59.77
12172;BME280;6149;52.418;13.668;2024-03-08T12:20:15;101544.53;;;9.26;59.50
12172;BME280;6149;52.418;13.668;2024-03-08T12:22:43;101546.59;;;9.17;61.81
12172;BME280;6149;52.418;13.668;2024-03-08T12:25:11;101543.03;;;9.18;61.26
12172;BME280;6149;52.418;13.668;2024-03-08T12:27:41;101540.81;;;9.32;61.77
12172;BME280;6149;52.418;13.668;2024-03-08T12:30:19;101534.38;;;9.41;60.79
12172;BME280;6149;52.418;13.668;2024-03-08T12:32:52;101537.47;;;9.27;59.67
12172;BME280;6149;52.418;13.668;2024-03-08T12:35:24;101533.94;;;9.28;60.07
12172;BME280;6149;52.418;13.668;2024-03-08T12:37:53;101530.16;;;9.35;60.50
12172;BME280;6149;52.418;13.668;2024-03-08T12:40:25;101526.59;;;9.36;59.40
12172;BME280;6149;52.418;13.668;2024-03-08T12:42:54;101521.38;;;9.34;58.28
12172;BME280;6149;52.418;13.668;2024-03-08T12:45:24;101494.72;;;9.42;58.08
12172;BME280;6149;52.418;13.668;2024-03-08T12:47:52;101498.16;;;9.44;57.35
12172;BME280;6149;52.418;13.668;2024-03-08T12:50:20;101493.84;;;9.66;57.32